sensor_id;sensor_type;location;lat;lon;timestamp;P1;durP1;ratioP1;P2;durP2;ratioP2
70997;SDS011;58663;52.040;4.634;2023-10-19T00:00:45;55.95;;;25.05;;
70997;SDS011;58663;52.040;4.634;2023-10-19T00:03:13;53.67;;;23.30;;
70997;SDS011;58663;52.040;4.634;2023-10-19T00:05:38;61.25;;;25.42;;
70997;SDS011;58663;52.040;4.634;2023-10-19T00:08:05;52.80;;;23.98;;
70997;SDS011;58663;52.040;4.634;2023-10-19T00:10:41;62.30;;;24.52;;
70997;SDS011;58663;52.040;4.634;2023-10-19T00:13:08;52.72;;;24.67;;
70997;SDS011;58663;52.040;4.634;2023-10-19T00:15:37;57.88;;;24.58;;
70997;SDS011;58663;52.040;4.634;2023-10-19T00:18:11;54.88;;;23.48;;
70997;SDS011;58663;52.040;4.634;2023-10-19T00:20:47;54.17;;;24.50;;
70997;SDS011;58663;52.040;4.634;2023-10-19T00:23:17;56.00;;;24.40;;
70997;SDS011;58663;52.040;4.634;2023-10-19T00:25:57;66.47;;;26.77;;
70997;SDS011;58663;52.040;4.634;2023-10-19T00:28:23;65.15;;;26.33;;
70997;SDS011;58663;52.040;4.634;2023-10-19T00:30:51;68.07;;;26.30;;
70997;SDS011;58663;52.040;4.634;2023-10-19T00:33:18;56.75;;;24.88;;
70997;SDS011;58663;52.040;4.634;2023-10-19T00:35:51;63.88;;;26.65;;
70997;SDS011;58663;52.040;4.634;2023-10-19T00:38:39;59.95;;;25.05;;
70997;SDS011;58663;52.040;4.634;2023-10-19T00:41:08;64.88;;;25.70;;
70997;SDS011;58663;52.040;4.634;2023-10-19T00:43:34;63.28;;;26.15;;
70997;SDS011;58663;52.040;4.634;2023-10-19T00:46:01;64.03;;;26.92;;
70997;SDS011;58663;52.040;4.634;2023-10-19T00:48:28;62.75;;;26.45;;
70997;SDS011;58663;52.040;4.634;2023-10-19T00:50:54;58.63;;;25.05;;
70997;SDS011;58663;52.040;4.634;2023-10-19T00:53:32;62.92;;;26.02;;
70997;SDS011;58663;52.040;4.634;2023-10-19T00:56:04;58.90;;;24.65;;
70997;SDS011;58663;52.040;4.634;2023-10-19T00:58:34;59.85;;;25.52;;
70997;SDS011;58663;52.040;4.634;2023-10-19T01:01:01;64.75;;;27.25;;
70997;SDS011;58663;52.040;4.634;2023-10-19T01:03:30;73.73;;;27.43;;
70997;SDS011;58663;52.040;4.634;2023-10-19T01:06:00;67.85;;;27.00;;
70997;SDS011;58663;52.040;4.634;2023-10-19T01:08:30;66.85;;;25.90;;
70997;SDS011;58663;52.040;4.634;2023-10-19T01:11:07;62.50;;;26.67;;
70997;SDS011;58663;52.040;4.634;2023-10-19T01:13:36;68.55;;;26.95;;
70997;SDS011;58663;52.040;4.634;2023-10-19T01:16:03;67.53;;;26.85;;
70997;SDS011;58663;52.040;4.634;2023-10-19T01:18:29;65.13;;;26.60;;
70997;SDS011;58663;52.040;4.634;2023-10-19T01:20:57;63.63;;;26.30;;
70997;SDS011;58663;52.040;4.634;2023-10-19T01:23:27;68.97;;;27.05;;
70997;SDS011;58663;52.040;4.634;2023-10-19T01:25:53;61.30;;;26.45;;
70997;SDS011;58663;52.040;4.634;2023-10-19T01:33:47;56.95;;;25.05;;
70997;SDS011;58663;52.040;4.634;2023-10-19T01:36:13;69.20;;;26.73;;
70997;SDS011;58663;52.040;4.634;2023-10-19T01:38:53;70.00;;;27.73;;
70997;SDS011;58663;52.040;4.634;2023-10-19T01:41:21;67.43;;;26.70;;
70997;SDS011;58663;52.040;4.634;2023-10-19T01:43:49;58.95;;;25.95;;
70997;SDS011;58663;52.040;4.634;2023-10-19T01:46:18;55.00;;;22.50;;
70997;SDS011;58663;52.040;4.634;2023-10-19T01:48:54;58.80;;;23.63;;
70997;SDS011;58663;52.040;4.634;2023-10-19T01:51:20;53.78;;;22.80;;
70997;SDS011;58663;52.040;4.634;2023-10-19T01:53:48;56.28;;;21.98;;
70997;SDS011;58663;52.040;4.634;2023-10-19T01:56:14;53.58;;;21.85;;
70997;SDS011;58663;52.040;4.634;2023-10-19T01:58:40;45.40;;;20.13;;
70997;SDS011;58663;52.040;4.634;2023-10-19T02:01:06;35.80;;;16.92;;
70997;SDS011;58663;52.040;4.634;2023-10-19T02:03:39;32.95;;;16.17;;
70997;SDS011;58663;52.040;4.634;2023-10-19T02:06:11;37.08;;;15.45;;
70997;SDS011;58663;52.040;4.634;2023-10-19T02:08:45;36.55;;;14.20;;
70997;SDS011;58663;52.040;4.634;2023-10-19T02:11:15;30.88;;;13.48;;
70997;SDS011;58663;52.040;4.634;2023-10-19T02:13:44;32.08;;;12.48;;
70997;SDS011;58663;52.040;4.634;2023-10-19T02:16:14;24.30;;;11.18;;
70997;SDS011;58663;52.040;4.634;2023-10-19T02:18:41;21.63;;;10.82;;
70997;SDS011;58663;52.040;4.634;2023-10-19T02:21:08;19.88;;;10.25;;
70997;SDS011;58663;52.040;4.634;2023-10-19T02:23:37;20.00;;;9.40;;
70997;SDS011;58663;52.040;4.634;2023-10-19T02:26:03;19.40;;;9.48;;
70997;SDS011;58663;52.040;4.634;2023-10-19T02:28:29;15.73;;;8.45;;
70997;SDS011;58663;52.040;4.634;2023-10-19T02:30:57;12.77;;;7.82;;
70997;SDS011;58663;52.040;4.634;2023-10-19T02:33:43;16.58;;;6.75;;
70997;SDS011;58663;52.040;4.634;2023-10-19T02:36:11;16.15;;;6.97;;
70997;SDS011;58663;52.040;4.634;2023-10-19T02:38:41;9.48;;;6.30;;
70997;SDS011;58663;52.040;4.634;2023-10-19T02:41:09;10.15;;;5.95;;
70997;SDS011;58663;52.040;4.634;2023-10-19T02:43:35;13.85;;;5.95;;
70997;SDS011;58663;52.040;4.634;2023-10-19T02:46:01;11.65;;;5.90;;
70997;SDS011;58663;52.040;4.634;2023-10-19T02:48:28;12.38;;;5.45;;
70997;SDS011;58663;52.040;4.634;2023-10-19T02:50:53;10.23;;;5.43;;
70997;SDS011;58663;52.040;4.634;2023-10-19T02:53:19;7.35;;;4.78;;
70997;SDS011;58663;52.040;4.634;2023-10-19T02:55:44;10.57;;;4.78;;
70997;SDS011;58663;52.040;4.634;2023-10-19T02:58:10;9.38;;;4.93;;
70997;SDS011;58663;52.040;4.634;2023-10-19T03:00:39;10.43;;;5.07;;
70997;SDS011;58663;52.040;4.634;2023-10-19T03:03:05;8.20;;;4.93;;
70997;SDS011;58663;52.040;4.634;2023-10-19T03:05:31;11.63;;;5.07;;
70997;SDS011;58663;52.040;4.634;2023-10-19T03:07:59;14.15;;;4.50;;
70997;SDS011;58663;52.040;4.634;2023-10-19T03:10:24;9.45;;;5.10;;
70997;SDS011;58663;52.040;4.634;2023-10-19T03:13:00;11.38;;;4.82;;
70997;SDS011;58663;52.040;4.634;2023-10-19T03:15:26;10.43;;;4.88;;
70997;SDS011;58663;52.040;4.634;2023-10-19T03:17:55;9.90;;;3.90;;
70997;SDS011;58663;52.040;4.634;2023-10-19T03:20:20;7.18;;;4.38;;
70997;SDS011;58663;52.040;4.634;2023-10-19T03:22:49;7.22;;;4.07;;
70997;SDS011;58663;52.040;4.634;2023-10-19T03:25:14;9.18;;;4.18;;
70997;SDS011;58663;52.040;4.634;2023-10-19T03:28:00;8.32;;;3.83;;
70997;SDS011;58663;52.040;4.634;2023-10-19T03:30:35;8.85;;;3.42;;
70997;SDS011;58663;52.040;4.634;2023-10-19T03:33:07;10.48;;;3.38;;
70997;SDS011;58663;52.040;4.634;2023-10-19T03:35:37;8.25;;;3.10;;
70997;SDS011;58663;52.040;4.634;2023-10-19T03:38:06;6.85;;;2.92;;
70997;SDS011;58663;52.040;4.634;2023-10-19T03:40:43;12.35;;;2.80;;
70997;SDS011;58663;52.040;4.634;2023-10-19T03:43:17;9.65;;;2.97;;
70997;SDS011;58663;52.040;4.634;2023-10-19T03:45:46;15.35;;;3.33;;
70997;SDS011;58663;52.040;4.634;2023-10-19T03:48:20;7.60;;;2.72;;
70997;SDS011;58663;52.040;4.634;2023-10-19T03:50:51;10.75;;;2.88;;
70997;SDS011;58663;52.040;4.634;2023-10-19T03:53:19;7.85;;;2.95;;
70997;SDS011;58663;52.040;4.634;2023-10-19T03:55:46;7.57;;;2.80;;
70997;SDS011;58663;52.040;4.634;2023-10-19T03:58:12;10.18;;;2.75;;
70997;SDS011;58663;52.040;4.634;2023-10-19T04:00:37;9.70;;;2.70;;
70997;SDS011;58663;52.040;4.634;2023-10-19T04:03:03;11.10;;;3.22;;
70997;SDS011;58663;52.040;4.634;2023-10-19T04:05:28;5.88;;;2.70;;
70997;SDS011;58663;52.040;4.634;2023-10-19T04:07:54;5.40;;;2.90;;
70997;SDS011;58663;52.040;4.634;2023-10-19T04:10:21;8.77;;;2.90;;
70997;SDS011;58663;52.040;4.634;2023-10-19T04:13:09;9.52;;;3.08;;
70997;SDS011;58663;52.040;4.634;2023-10-19T04:15:35;7.10;;;3.15;;
70997;SDS011;58663;52.040;4.634;2023-10-19T04:18:01;7.43;;;2.88;;
70997;SDS011;58663;52.040;4.634;2023-10-19T04:20:27;5.57;;;2.90;;
70997;SDS011;58663;52.040;4.634;2023-10-19T04:23:22;9.57;;;3.25;;
70997;SDS011;58663;52.040;4.634;2023-10-19T04:25:52;10.38;;;3.38;;
70997;SDS011;58663;52.040;4.634;2023-10-19T04:28:18;11.45;;;4.68;;
70997;SDS011;58663;52.040;4.634;2023-10-19T04:30:50;9.45;;;3.78;;
70997;SDS011;58663;52.040;4.634;2023-10-19T04:33:16;9.63;;;3.95;;
70997;SDS011;58663;52.040;4.634;2023-10-19T04:35:43;7.45;;;3.88;;
70997;SDS011;58663;52.040;4.634;2023-10-19T04:38:10;14.05;;;4.13;;
70997;SDS011;58663;52.040;4.634;2023-10-19T04:40:35;8.40;;;4.05;;
70997;SDS011;58663;52.040;4.634;2023-10-19T04:43:01;11.23;;;4.20;;
70997;SDS011;58663;52.040;4.634;2023-10-19T04:45:30;23.30;;;4.27;;
70997;SDS011;58663;52.040;4.634;2023-10-19T04:47:56;10.10;;;3.95;;
70997;SDS011;58663;52.040;4.634;2023-10-19T04:50:21;15.48;;;4.18;;
70997;SDS011;58663;52.040;4.634;2023-10-19T04:52:47;13.85;;;4.32;;
70997;SDS011;58663;52.040;4.634;2023-10-19T04:55:15;13.10;;;3.83;;
70997;SDS011;58663;52.040;4.634;2023-10-19T04:57:40;15.38;;;4.65;;
70997;SDS011;58663;52.040;4.634;2023-10-19T05:00:06;15.27;;;4.82;;
70997;SDS011;58663;52.040;4.634;2023-10-19T05:02:33;10.90;;;4.63;;
70997;SDS011;58663;52.040;4.634;2023-10-19T05:04:58;14.02;;;5.10;;
70997;SDS011;58663;52.040;4.634;2023-10-19T05:07:24;15.32;;;4.75;;
70997;SDS011;58663;52.040;4.634;2023-10-19T05:09:49;10.88;;;3.70;;
70997;SDS011;58663;52.040;4.634;2023-10-19T05:12:14;11.80;;;3.90;;
70997;SDS011;58663;52.040;4.634;2023-10-19T05:14:40;9.77;;;4.10;;
70997;SDS011;58663;52.040;4.634;2023-10-19T05:17:06;14.65;;;3.83;;
70997;SDS011;58663;52.040;4.634;2023-10-19T05:19:34;9.00;;;3.40;;
70997;SDS011;58663;52.040;4.634;2023-10-19T05:22:00;12.23;;;3.85;;
70997;SDS011;58663;52.040;4.634;2023-10-19T05:24:25;22.38;;;4.22;;
70997;SDS011;58663;52.040;4.634;2023-10-19T05:26:52;11.18;;;3.40;;
70997;SDS011;58663;52.040;4.634;2023-10-19T05:29:18;21.05;;;4.15;;
70997;SDS011;58663;52.040;4.634;2023-10-19T05:31:44;9.55;;;3.58;;
70997;SDS011;58663;52.040;4.634;2023-10-19T05:34:10;11.32;;;3.50;;
70997;SDS011;58663;52.040;4.634;2023-10-19T05:36:35;6.60;;;3.42;;
70997;SDS011;58663;52.040;4.634;2023-10-19T05:39:00;10.20;;;3.67;;
70997;SDS011;58663;52.040;4.634;2023-10-19T05:41:26;14.63;;;4.55;;
70997;SDS011;58663;52.040;4.634;2023-10-19T05:43:51;14.85;;;4.38;;
70997;SDS011;58663;52.040;4.634;2023-10-19T05:46:18;14.05;;;4.15;;
70997;SDS011;58663;52.040;4.634;2023-10-19T05:48:47;9.77;;;3.78;;
70997;SDS011;58663;52.040;4.634;2023-10-19T05:51:14;13.85;;;3.17;;
70997;SDS011;58663;52.040;4.634;2023-10-19T05:53:39;13.13;;;3.67;;
70997;SDS011;58663;52.040;4.634;2023-10-19T05:56:06;14.85;;;3.05;;
70997;SDS011;58663;52.040;4.634;2023-10-19T05:58:32;9.15;;;3.60;;
70997;SDS011;58663;52.040;4.634;2023-10-19T06:01:00;19.25;;;4.13;;
70997;SDS011;58663;52.040;4.634;2023-10-19T06:03:26;8.18;;;3.50;;
70997;SDS011;58663;52.040;4.634;2023-10-19T06:05:51;6.75;;;3.20;;
70997;SDS011;58663;52.040;4.634;2023-10-19T06:08:21;12.30;;;3.42;;
70997;SDS011;58663;52.040;4.634;2023-10-19T06:10:50;9.82;;;3.83;;
70997;SDS011;58663;52.040;4.634;2023-10-19T06:13:18;8.43;;;3.70;;
70997;SDS011;58663;52.040;4.634;2023-10-19T06:15:44;14.88;;;4.85;;
70997;SDS011;58663;52.040;4.634;2023-10-19T06:18:09;9.82;;;4.45;;
70997;SDS011;58663;52.040;4.634;2023-10-19T06:20:35;13.10;;;4.00;;
70997;SDS011;58663;52.040;4.634;2023-10-19T06:23:01;13.40;;;4.43;;
70997;SDS011;58663;52.040;4.634;2023-10-19T06:25:30;12.38;;;4.15;;
70997;SDS011;58663;52.040;4.634;2023-10-19T06:27:55;15.02;;;4.55;;
70997;SDS011;58663;52.040;4.634;2023-10-19T06:30:22;13.52;;;4.78;;
70997;SDS011;58663;52.040;4.634;2023-10-19T06:32:51;10.15;;;4.50;;
70997;SDS011;58663;52.040;4.634;2023-10-19T06:35:18;19.85;;;4.88;;
70997;SDS011;58663;52.040;4.634;2023-10-19T06:37:44;11.75;;;4.20;;
70997;SDS011;58663;52.040;4.634;2023-10-19T06:40:10;12.07;;;4.40;;
70997;SDS011;58663;52.040;4.634;2023-10-19T06:42:37;19.25;;;6.72;;
70997;SDS011;58663;52.040;4.634;2023-10-19T06:45:03;17.33;;;4.13;;
70997;SDS011;58663;52.040;4.634;2023-10-19T06:47:28;12.02;;;4.20;;
70997;SDS011;58663;52.040;4.634;2023-10-19T06:49:54;9.75;;;4.45;;
70997;SDS011;58663;52.040;4.634;2023-10-19T06:52:21;9.52;;;4.30;;
70997;SDS011;58663;52.040;4.634;2023-10-19T06:54:46;11.45;;;4.15;;
70997;SDS011;58663;52.040;4.634;2023-10-19T06:57:11;15.35;;;4.50;;
70997;SDS011;58663;52.040;4.634;2023-10-19T06:59:37;11.77;;;4.50;;
70997;SDS011;58663;52.040;4.634;2023-10-19T07:02:02;9.30;;;4.13;;
70997;SDS011;58663;52.040;4.634;2023-10-19T07:04:28;21.65;;;4.88;;
70997;SDS011;58663;52.040;4.634;2023-10-19T07:06:54;15.57;;;4.10;;
70997;SDS011;58663;52.040;4.634;2023-10-19T07:09:20;20.40;;;4.57;;
70997;SDS011;58663;52.040;4.634;2023-10-19T07:11:46;10.75;;;4.05;;
70997;SDS011;58663;52.040;4.634;2023-10-19T07:14:11;12.35;;;4.40;;
70997;SDS011;58663;52.040;4.634;2023-10-19T07:16:38;12.75;;;4.40;;
70997;SDS011;58663;52.040;4.634;2023-10-19T07:19:05;17.70;;;4.68;;
70997;SDS011;58663;52.040;4.634;2023-10-19T07:21:30;9.98;;;4.35;;
70997;SDS011;58663;52.040;4.634;2023-10-19T07:24:00;11.10;;;4.13;;
70997;SDS011;58663;52.040;4.634;2023-10-19T07:26:30;11.48;;;4.00;;
70997;SDS011;58663;52.040;4.634;2023-10-19T07:28:58;11.35;;;3.90;;
70997;SDS011;58663;52.040;4.634;2023-10-19T07:31:24;14.30;;;4.00;;
70997;SDS011;58663;52.040;4.634;2023-10-19T07:33:50;12.98;;;4.05;;
70997;SDS011;58663;52.040;4.634;2023-10-19T07:36:15;11.75;;;4.32;;
70997;SDS011;58663;52.040;4.634;2023-10-19T07:38:41;12.57;;;4.88;;
70997;SDS011;58663;52.040;4.634;2023-10-19T07:41:12;16.35;;;4.70;;
70997;SDS011;58663;52.040;4.634;2023-10-19T07:43:37;12.02;;;4.72;;
70997;SDS011;58663;52.040;4.634;2023-10-19T07:46:03;13.93;;;5.20;;
70997;SDS011;58663;52.040;4.634;2023-10-19T07:48:28;13.52;;;4.57;;
70997;SDS011;58663;52.040;4.634;2023-10-19T07:50:54;20.60;;;5.32;;
70997;SDS011;58663;52.040;4.634;2023-10-19T07:53:19;15.00;;;5.63;;
70997;SDS011;58663;52.040;4.634;2023-10-19T07:55:45;15.20;;;5.78;;
70997;SDS011;58663;52.040;4.634;2023-10-19T07:58:10;16.50;;;6.72;;
70997;SDS011;58663;52.040;4.634;2023-10-19T08:00:36;18.33;;;5.88;;
70997;SDS011;58663;52.040;4.634;2023-10-19T08:03:04;19.33;;;5.78;;
70997;SDS011;58663;52.040;4.634;2023-10-19T08:05:31;20.45;;;6.15;;
70997;SDS011;58663;52.040;4.634;2023-10-19T08:07:56;17.50;;;6.00;;
70997;SDS011;58663;52.040;4.634;2023-10-19T08:10:23;18.65;;;6.45;;
70997;SDS011;58663;52.040;4.634;2023-10-19T08:12:50;21.98;;;6.25;;
70997;SDS011;58663;52.040;4.634;2023-10-19T08:15:17;14.10;;;6.10;;
70997;SDS011;58663;52.040;4.634;2023-10-19T08:17:43;15.50;;;4.95;;
70997;SDS011;58663;52.040;4.634;2023-10-19T08:20:11;15.90;;;4.47;;
70997;SDS011;58663;52.040;4.634;2023-10-19T08:22:50;24.83;;;5.38;;
70997;SDS011;58663;52.040;4.634;2023-10-19T08:25:16;13.90;;;4.70;;
70997;SDS011;58663;52.040;4.634;2023-10-19T08:27:42;15.65;;;5.20;;
70997;SDS011;58663;52.040;4.634;2023-10-19T08:30:10;13.25;;;5.03;;
70997;SDS011;58663;52.040;4.634;2023-10-19T08:32:37;12.73;;;4.85;;
70997;SDS011;58663;52.040;4.634;2023-10-19T08:35:04;14.57;;;5.45;;
70997;SDS011;58663;52.040;4.634;2023-10-19T08:37:30;16.45;;;5.15;;
70997;SDS011;58663;52.040;4.634;2023-10-19T08:39:56;15.65;;;5.50;;
70997;SDS011;58663;52.040;4.634;2023-10-19T08:42:23;23.63;;;5.78;;
70997;SDS011;58663;52.040;4.634;2023-10-19T08:44:48;17.67;;;5.03;;
70997;SDS011;58663;52.040;4.634;2023-10-19T08:47:14;22.33;;;5.68;;
70997;SDS011;58663;52.040;4.634;2023-10-19T08:49:40;20.52;;;6.00;;
70997;SDS011;58663;52.040;4.634;2023-10-19T08:52:06;17.33;;;5.47;;
70997;SDS011;58663;52.040;4.634;2023-10-19T08:54:32;17.00;;;5.40;;
70997;SDS011;58663;52.040;4.634;2023-10-19T08:56:59;22.05;;;6.22;;
70997;SDS011;58663;52.040;4.634;2023-10-19T08:59:24;24.25;;;6.40;;
70997;SDS011;58663;52.040;4.634;2023-10-19T09:01:50;15.30;;;5.95;;
70997;SDS011;58663;52.040;4.634;2023-10-19T09:04:15;25.00;;;5.90;;
70997;SDS011;58663;52.040;4.634;2023-10-19T09:06:41;17.25;;;5.57;;
70997;SDS011;58663;52.040;4.634;2023-10-19T09:09:10;19.35;;;5.38;;
70997;SDS011;58663;52.040;4.634;2023-10-19T09:11:48;15.20;;;5.15;;
70997;SDS011;58663;52.040;4.634;2023-10-19T09:14:14;17.63;;;5.13;;
70997;SDS011;58663;52.040;4.634;2023-10-19T09:16:55;15.02;;;5.35;;
70997;SDS011;58663;52.040;4.634;2023-10-19T09:19:43;25.13;;;5.20;;
70997;SDS011;58663;52.040;4.634;2023-10-19T09:22:08;18.85;;;5.07;;
70997;SDS011;58663;52.040;4.634;2023-10-19T09:24:46;16.20;;;5.03;;
70997;SDS011;58663;52.040;4.634;2023-10-19T09:27:11;20.85;;;5.00;;
70997;SDS011;58663;52.040;4.634;2023-10-19T09:29:38;10.07;;;4.45;;
70997;SDS011;58663;52.040;4.634;2023-10-19T09:32:05;19.33;;;4.70;;
70997;SDS011;58663;52.040;4.634;2023-10-19T09:34:32;17.50;;;4.28;;
70997;SDS011;58663;52.040;4.634;2023-10-19T09:37:00;22.67;;;5.15;;
70997;SDS011;58663;52.040;4.634;2023-10-19T09:39:27;12.77;;;4.60;;
70997;SDS011;58663;52.040;4.634;2023-10-19T09:41:59;17.80;;;4.50;;
70997;SDS011;58663;52.040;4.634;2023-10-19T09:47:19;12.05;;;4.25;;
70997;SDS011;58663;52.040;4.634;2023-10-19T09:49:51;14.48;;;4.18;;
70997;SDS011;58663;52.040;4.634;2023-10-19T09:52:17;18.35;;;4.45;;
70997;SDS011;58663;52.040;4.634;2023-10-19T09:54:54;13.52;;;3.78;;
70997;SDS011;58663;52.040;4.634;2023-10-19T09:57:44;16.88;;;4.60;;
70997;SDS011;58663;52.040;4.634;2023-10-19T10:00:14;11.57;;;3.63;;
70997;SDS011;58663;52.040;4.634;2023-10-19T10:02:43;15.95;;;4.25;;
70997;SDS011;58663;52.040;4.634;2023-10-19T10:10:47;17.27;;;4.13;;
70997;SDS011;58663;52.040;4.634;2023-10-19T10:15:55;16.55;;;3.78;;
70997;SDS011;58663;52.040;4.634;2023-10-19T10:18:24;15.82;;;4.45;;
70997;SDS011;58663;52.040;4.634;2023-10-19T10:21:23;20.35;;;4.95;;
70997;SDS011;58663;52.040;4.634;2023-10-19T10:26:16;12.77;;;3.53;;
70997;SDS011;58663;52.040;4.634;2023-10-19T10:28:46;13.45;;;3.65;;
70997;SDS011;58663;52.040;4.634;2023-10-19T10:31:19;21.00;;;3.97;;
70997;SDS011;58663;52.040;4.634;2023-10-19T10:36:13;9.30;;;2.95;;
70997;SDS011;58663;52.040;4.634;2023-10-19T10:38:39;13.23;;;2.60;;
70997;SDS011;58663;52.040;4.634;2023-10-19T10:41:05;9.55;;;3.05;;
70997;SDS011;58663;52.040;4.634;2023-10-19T10:43:46;12.32;;;2.58;;
70997;SDS011;58663;52.040;4.634;2023-10-19T10:46:13;15.73;;;2.75;;
70997;SDS011;58663;52.040;4.634;2023-10-19T10:48:42;10.95;;;3.33;;
70997;SDS011;58663;52.040;4.634;2023-10-19T10:51:23;17.50;;;3.42;;
70997;SDS011;58663;52.040;4.634;2023-10-19T10:53:50;12.80;;;2.92;;
70997;SDS011;58663;52.040;4.634;2023-10-19T10:56:18;13.95;;;3.25;;
70997;SDS011;58663;52.040;4.634;2023-10-19T10:58:45;13.13;;;3.65;;
70997;SDS011;58663;52.040;4.634;2023-10-19T11:01:10;15.45;;;2.92;;
70997;SDS011;58663;52.040;4.634;2023-10-19T11:03:36;9.25;;;2.50;;
70997;SDS011;58663;52.040;4.634;2023-10-19T11:06:03;17.58;;;2.92;;
70997;SDS011;58663;52.040;4.634;2023-10-19T11:08:29;16.65;;;3.47;;
70997;SDS011;58663;52.040;4.634;2023-10-19T11:11:01;14.38;;;2.45;;
70997;SDS011;58663;52.040;4.634;2023-10-19T11:13:27;15.83;;;3.40;;
70997;SDS011;58663;52.040;4.634;2023-10-19T11:15:55;12.52;;;2.80;;
70997;SDS011;58663;52.040;4.634;2023-10-19T11:21:01;15.32;;;3.55;;
70997;SDS011;58663;52.040;4.634;2023-10-19T11:26:09;13.68;;;3.40;;
70997;SDS011;58663;52.040;4.634;2023-10-19T11:28:35;10.07;;;2.97;;
70997;SDS011;58663;52.040;4.634;2023-10-19T11:31:14;14.98;;;3.22;;
70997;SDS011;58663;52.040;4.634;2023-10-19T11:33:44;14.52;;;2.63;;
70997;SDS011;58663;52.040;4.634;2023-10-19T11:36:11;18.60;;;3.25;;
70997;SDS011;58663;52.040;4.634;2023-10-19T11:38:40;13.98;;;3.05;;
70997;SDS011;58663;52.040;4.634;2023-10-19T11:41:10;8.73;;;2.90;;
70997;SDS011;58663;52.040;4.634;2023-10-19T11:43:36;10.60;;;3.65;;
70997;SDS011;58663;52.040;4.634;2023-10-19T11:46:02;16.92;;;3.15;;
70997;SDS011;58663;52.040;4.634;2023-10-19T11:48:29;15.20;;;3.25;;
70997;SDS011;58663;52.040;4.634;2023-10-19T11:50:55;19.13;;;3.33;;
70997;SDS011;58663;52.040;4.634;2023-10-19T11:53:21;12.82;;;3.53;;
70997;SDS011;58663;52.040;4.634;2023-10-19T11:55:46;11.43;;;2.80;;
70997;SDS011;58663;52.040;4.634;2023-10-19T11:58:13;10.63;;;2.70;;
70997;SDS011;58663;52.040;4.634;2023-10-19T12:00:39;15.20;;;4.18;;
70997;SDS011;58663;52.040;4.634;2023-10-19T12:03:08;11.45;;;3.25;;
70997;SDS011;58663;52.040;4.634;2023-10-19T12:05:37;12.05;;;2.95;;
70997;SDS011;58663;52.040;4.634;2023-10-19T12:08:03;10.40;;;2.38;;
70997;SDS011;58663;52.040;4.634;2023-10-19T12:10:28;15.30;;;3.65;;
70997;SDS011;58663;52.040;4.634;2023-10-19T12:13:06;14.85;;;3.40;;
70997;SDS011;58663;52.040;4.634;2023-10-19T12:15:32;12.48;;;2.72;;
70997;SDS011;58663;52.040;4.634;2023-10-19T12:17:58;15.48;;;3.05;;
70997;SDS011;58663;52.040;4.634;2023-10-19T12:20:24;13.82;;;2.53;;
70997;SDS011;58663;52.040;4.634;2023-10-19T12:22:50;12.45;;;2.92;;
70997;SDS011;58663;52.040;4.634;2023-10-19T12:25:22;8.43;;;2.63;;
70997;SDS011;58663;52.040;4.634;2023-10-19T12:27:59;17.05;;;2.78;;
70997;SDS011;58663;52.040;4.634;2023-10-19T12:30:25;20.02;;;2.95;;
70997;SDS011;58663;52.040;4.634;2023-10-19T12:32:59;14.95;;;4.30;;
70997;SDS011;58663;52.040;4.634;2023-10-19T12:35:25;13.95;;;2.53;;
70997;SDS011;58663;52.040;4.634;2023-10-19T12:38:07;14.55;;;2.67;;
70997;SDS011;58663;52.040;4.634;2023-10-19T12:40:33;14.30;;;2.85;;
70997;SDS011;58663;52.040;4.634;2023-10-19T12:43:03;17.65;;;4.05;;
70997;SDS011;58663;52.040;4.634;2023-10-19T12:45:32;12.05;;;2.60;;
70997;SDS011;58663;52.040;4.634;2023-10-19T12:48:02;14.73;;;3.28;;
70997;SDS011;58663;52.040;4.634;2023-10-19T12:50:30;18.92;;;3.30;;
70997;SDS011;58663;52.040;4.634;2023-10-19T12:52:56;14.55;;;3.05;;
70997;SDS011;58663;52.040;4.634;2023-10-19T12:55:21;19.92;;;3.05;;
70997;SDS011;58663;52.040;4.634;2023-10-19T12:57:47;14.88;;;4.13;;
70997;SDS011;58663;52.040;4.634;2023-10-19T13:00:12;16.45;;;3.03;;
70997;SDS011;58663;52.040;4.634;2023-10-19T13:03:01;15.05;;;3.83;;
70997;SDS011;58663;52.040;4.634;2023-10-19T13:05:47;14.02;;;3.85;;
70997;SDS011;58663;52.040;4.634;2023-10-19T13:08:14;18.67;;;4.65;;
70997;SDS011;58663;52.040;4.634;2023-10-19T13:10:41;15.82;;;4.07;;
70997;SDS011;58663;52.040;4.634;2023-10-19T13:13:08;20.52;;;3.83;;
70997;SDS011;58663;52.040;4.634;2023-10-19T13:15:38;17.05;;;4.20;;
70997;SDS011;58663;52.040;4.634;2023-10-19T13:18:05;19.65;;;4.75;;
70997;SDS011;58663;52.040;4.634;2023-10-19T13:20:32;12.45;;;3.42;;
70997;SDS011;58663;52.040;4.634;2023-10-19T13:23:06;16.63;;;3.72;;
70997;SDS011;58663;52.040;4.634;2023-10-19T13:25:36;15.32;;;3.30;;
70997;SDS011;58663;52.040;4.634;2023-10-19T13:28:09;12.05;;;3.15;;
70997;SDS011;58663;52.040;4.634;2023-10-19T13:30:36;11.10;;;3.45;;
70997;SDS011;58663;52.040;4.634;2023-10-19T13:33:05;16.02;;;5.10;;
70997;SDS011;58663;52.040;4.634;2023-10-19T13:35:34;15.55;;;4.20;;
70997;SDS011;58663;52.040;4.634;2023-10-19T13:37:59;17.40;;;4.00;;
70997;SDS011;58663;52.040;4.634;2023-10-19T13:40:26;13.77;;;4.07;;
70997;SDS011;58663;52.040;4.634;2023-10-19T13:42:55;21.67;;;4.28;;
70997;SDS011;58663;52.040;4.634;2023-10-19T13:45:21;11.68;;;3.40;;
70997;SDS011;58663;52.040;4.634;2023-10-19T13:47:46;19.25;;;3.70;;
70997;SDS011;58663;52.040;4.634;2023-10-19T13:50:12;12.75;;;3.20;;
70997;SDS011;58663;52.040;4.634;2023-10-19T13:52:38;12.10;;;3.08;;
70997;SDS011;58663;52.040;4.634;2023-10-19T13:55:04;10.85;;;3.45;;
70997;SDS011;58663;52.040;4.634;2023-10-19T13:57:32;14.90;;;3.70;;
70997;SDS011;58663;52.040;4.634;2023-10-19T13:59:57;11.25;;;3.85;;
70997;SDS011;58663;52.040;4.634;2023-10-19T14:02:23;15.50;;;3.20;;
70997;SDS011;58663;52.040;4.634;2023-10-19T14:04:49;18.23;;;4.03;;
70997;SDS011;58663;52.040;4.634;2023-10-19T14:07:16;20.33;;;4.07;;
70997;SDS011;58663;52.040;4.634;2023-10-19T14:09:42;16.02;;;3.85;;
70997;SDS011;58663;52.040;4.634;2023-10-19T14:12:07;10.73;;;3.78;;
70997;SDS011;58663;52.040;4.634;2023-10-19T14:14:34;11.90;;;3.65;;
70997;SDS011;58663;52.040;4.634;2023-10-19T14:17:00;15.23;;;3.83;;
70997;SDS011;58663;52.040;4.634;2023-10-19T14:19:26;17.20;;;4.13;;
70997;SDS011;58663;52.040;4.634;2023-10-19T14:21:51;18.10;;;3.85;;
70997;SDS011;58663;52.040;4.634;2023-10-19T14:24:17;16.65;;;3.85;;
70997;SDS011;58663;52.040;4.634;2023-10-19T14:26:45;12.32;;;3.60;;
70997;SDS011;58663;52.040;4.634;2023-10-19T14:29:11;16.40;;;4.13;;
70997;SDS011;58663;52.040;4.634;2023-10-19T14:31:38;17.20;;;3.70;;
70997;SDS011;58663;52.040;4.634;2023-10-19T14:34:04;15.40;;;4.07;;
70997;SDS011;58663;52.040;4.634;2023-10-19T14:36:29;21.17;;;4.63;;
70997;SDS011;58663;52.040;4.634;2023-10-19T14:38:54;16.13;;;4.03;;
70997;SDS011;58663;52.040;4.634;2023-10-19T14:41:20;21.40;;;4.10;;
70997;SDS011;58663;52.040;4.634;2023-10-19T14:43:45;12.70;;;3.55;;
70997;SDS011;58663;52.040;4.634;2023-10-19T14:46:11;17.38;;;4.35;;
70997;SDS011;58663;52.040;4.634;2023-10-19T14:48:36;10.20;;;4.38;;
70997;SDS011;58663;52.040;4.634;2023-10-19T14:51:02;10.25;;;4.00;;
70997;SDS011;58663;52.040;4.634;2023-10-19T14:53:27;24.10;;;4.35;;
70997;SDS011;58663;52.040;4.634;2023-10-19T14:55:55;13.68;;;4.28;;
70997;SDS011;58663;52.040;4.634;2023-10-19T14:58:21;13.73;;;4.35;;
70997;SDS011;58663;52.040;4.634;2023-10-19T15:00:47;14.43;;;3.53;;
70997;SDS011;58663;52.040;4.634;2023-10-19T15:03:19;15.35;;;3.88;;
70997;SDS011;58663;52.040;4.634;2023-10-19T15:05:49;13.68;;;3.45;;